createdAt,value
2019-03-16T00:00:28.023Z,0.00
2019-03-16T00:01:28.011Z,0.00
2019-03-16T00:02:27.999Z,0.00
2019-03-16T00:03:27.990Z,0.00
2019-03-16T00:04:28.000Z,0.00
2019-03-16T00:05:27.960Z,0.00
2019-03-16T00:06:27.963Z,0.00
2019-03-16T00:07:32.898Z,0.00
2019-03-16T00:08:28.937Z,0.00
2019-03-16T00:09:27.932Z,0.00
2019-03-16T00:10:27.935Z,0.00
2019-03-16T00:11:27.906Z,0.00
2019-03-16T00:12:27.891Z,0.00
2019-03-16T00:13:27.880Z,0.00
2019-03-16T00:14:27.868Z,0.00
2019-03-16T00:15:27.874Z,0.00
2019-03-16T00:16:27.883Z,0.00
2019-03-16T00:17:27.845Z,0.00
2019-03-16T00:18:27.850Z,0.00
2019-03-16T00:19:27.823Z,0.00
2019-03-16T00:20:27.807Z,0.00
2019-03-16T00:21:27.806Z,0.00
2019-03-16T00:22:27.800Z,0.00
2019-03-16T00:23:27.779Z,0.00
2019-03-16T00:24:27.768Z,0.00
2019-03-16T00:25:27.752Z,0.00
2019-03-16T00:26:27.746Z,0.00
2019-03-16T00:27:27.737Z,0.00
2019-03-16T00:28:27.742Z,0.00
2019-03-16T00:29:27.711Z,0.00
2019-03-16T00:30:27.716Z,0.00
2019-03-16T00:31:27.690Z,0.00
2019-03-16T00:32:27.688Z,0.00
2019-03-16T00:33:27.675Z,0.00
2019-03-16T00:34:27.675Z,0.00
2019-03-16T00:35:27.650Z,0.00
2019-03-16T00:36:27.640Z,0.00
2019-03-16T00:37:27.631Z,0.00
2019-03-16T00:38:27.623Z,0.00
2019-03-16T00:39:27.606Z,0.00
2019-03-16T00:40:27.624Z,0.00
2019-03-16T00:41:27.589Z,0.00
2019-03-16T00:42:27.581Z,0.00
2019-03-16T00:43:27.567Z,0.00
2019-03-16T00:44:27.558Z,0.00
2019-03-16T00:45:27.545Z,0.00
2019-03-16T00:46:27.548Z,0.00
2019-03-16T00:47:27.523Z,0.00
2019-03-16T00:48:27.522Z,0.00
2019-03-16T00:49:27.505Z,0.00
2019-03-16T00:50:27.491Z,0.00
2019-03-16T00:51:27.481Z,0.00
2019-03-16T00:52:27.488Z,0.00
2019-03-16T00:53:27.462Z,0.00
2019-03-16T00:54:27.449Z,0.00
2019-03-16T00:55:27.439Z,0.00
2019-03-16T00:56:27.427Z,0.00
2019-03-16T00:57:27.414Z,0.00
2019-03-16T00:58:27.430Z,0.00
2019-03-16T00:59:27.401Z,0.00
2019-03-16T01:00:27.391Z,0.00
2019-03-16T01:01:27.379Z,0.00
2019-03-16T01:02:27.720Z,0.00
2019-03-16T01:03:27.357Z,0.00
2019-03-16T01:04:27.360Z,0.00
2019-03-16T01:05:27.342Z,0.00
2019-03-16T01:06:27.328Z,0.00
2019-03-16T01:07:27.316Z,0.00
2019-03-16T01:08:27.303Z,0.00
2019-03-16T01:09:27.290Z,0.00
2019-03-16T01:10:27.309Z,0.00
2019-03-16T01:11:27.274Z,0.00
2019-03-16T01:12:27.267Z,0.00
2019-03-16T01:13:27.252Z,0.00
2019-03-16T01:14:27.242Z,0.00
2019-03-16T01:15:27.257Z,0.00
2019-03-16T01:16:27.238Z,0.00
2019-03-16T01:17:27.207Z,0.00
2019-03-16T01:18:27.197Z,0.00
2019-03-16T01:19:27.192Z,0.00
2019-03-16T01:20:27.178Z,0.00
2019-03-16T01:21:27.187Z,0.00
2019-03-16T01:22:27.187Z,0.00
2019-03-16T01:23:27.145Z,0.00
2019-03-16T01:24:27.136Z,0.00
2019-03-16T01:25:27.125Z,0.00
2019-03-16T01:26:27.117Z,0.00
2019-03-16T01:27:27.103Z,0.00
2019-03-16T01:28:27.116Z,0.00
2019-03-16T01:29:27.087Z,0.00
2019-03-16T01:30:27.074Z,0.00
2019-03-16T01:31:27.064Z,0.00
2019-03-16T01:32:39.725Z,0.00
2019-03-16T01:33:28.065Z,0.00
2019-03-16T01:34:27.032Z,0.00
2019-03-16T01:35:27.027Z,0.00
2019-03-16T01:36:27.010Z,0.00
2019-03-16T01:37:26.997Z,0.00
2019-03-16T01:38:26.986Z,0.00
2019-03-16T01:39:26.991Z,0.00
2019-03-16T01:40:26.985Z,0.00
2019-03-16T01:41:26.960Z,0.00
2019-03-16T01:42:26.945Z,0.00
2019-03-16T01:43:26.935Z,0.00
2019-03-16T01:44:26.950Z,0.00
2019-03-16T01:45:26.932Z,0.00
2019-03-16T01:46:26.908Z,0.00
2019-03-16T01:47:26.893Z,0.00
2019-03-16T01:48:26.883Z,0.00
2019-03-16T01:49:26.873Z,0.00
2019-03-16T01:50:26.864Z,0.00
2019-03-16T01:51:26.864Z,0.00
2019-03-16T01:52:26.839Z,0.00
2019-03-16T01:53:26.829Z,0.00
2019-03-16T01:54:26.820Z,0.00
2019-03-16T01:55:26.810Z,0.00
2019-03-16T01:56:26.798Z,0.00
2019-03-16T01:57:26.809Z,0.00
2019-03-16T01:58:26.774Z,0.00
2019-03-16T01:59:26.814Z,0.00
2019-03-16T02:00:26.760Z,0.00
2019-03-16T02:01:26.778Z,0.00
2019-03-16T02:02:26.738Z,0.00
2019-03-16T02:03:26.869Z,0.00
2019-03-16T02:04:26.718Z,0.00
2019-03-16T02:05:26.716Z,0.00
2019-03-16T02:06:26.709Z,0.00
2019-03-16T02:07:26.711Z,0.00
2019-03-16T02:08:26.675Z,0.00
2019-03-16T02:09:26.730Z,0.00
2019-03-16T02:10:26.658Z,0.00
2019-03-16T02:11:26.658Z,0.00
2019-03-16T02:12:26.632Z,0.00
2019-03-16T02:13:26.646Z,0.00
2019-03-16T02:14:26.611Z,0.00
2019-03-16T02:15:26.703Z,0.00
2019-03-16T02:16:26.584Z,0.00
2019-03-16T02:17:26.581Z,0.00
2019-03-16T02:18:26.569Z,0.00
2019-03-16T02:19:26.561Z,0.00
2019-03-16T02:20:26.551Z,0.00
2019-03-16T02:21:26.627Z,0.00
2019-03-16T02:22:26.527Z,0.00
2019-03-16T02:23:26.520Z,0.00
2019-03-16T02:24:26.506Z,0.00
2019-03-16T02:25:26.498Z,0.00
2019-03-16T02:26:26.504Z,0.00
2019-03-16T02:27:26.507Z,0.00
2019-03-16T02:28:26.465Z,0.00
2019-03-16T02:29:26.454Z,0.00
2019-03-16T02:30:26.446Z,0.00
2019-03-16T02:31:26.434Z,0.00
2019-03-16T02:32:26.418Z,0.00
2019-03-16T02:33:26.441Z,0.00
2019-03-16T02:34:26.414Z,0.00
2019-03-16T02:35:26.393Z,0.00
2019-03-16T02:36:26.400Z,0.00
2019-03-16T02:37:26.367Z,0.00
2019-03-16T02:38:26.356Z,0.00
2019-03-16T02:39:26.452Z,0.00
2019-03-16T02:40:26.341Z,0.00
2019-03-16T02:41:26.324Z,0.00
2019-03-16T02:42:26.315Z,0.00
2019-03-16T02:43:26.318Z,0.00
2019-03-16T02:44:26.310Z,0.00
2019-03-16T02:45:26.334Z,0.00
2019-03-16T02:46:26.296Z,0.00
2019-03-16T02:47:26.270Z,0.00
2019-03-16T02:48:26.252Z,0.00
2019-03-16T02:49:26.238Z,0.00
2019-03-16T02:50:26.229Z,0.00
2019-03-16T02:51:26.241Z,0.00
2019-03-16T02:52:26.221Z,0.00
2019-03-16T02:53:26.208Z,0.00
2019-03-16T02:54:26.196Z,0.00
2019-03-16T02:55:26.188Z,0.00
2019-03-16T02:56:26.180Z,0.00
2019-03-16T02:57:26.217Z,0.00
2019-03-16T02:58:26.148Z,0.00
2019-03-16T02:59:26.157Z,0.00
2019-03-16T03:00:26.128Z,0.00
2019-03-16T03:01:26.113Z,0.00
2019-03-16T03:02:26.107Z,0.00
2019-03-16T03:03:29.772Z,0.00
2019-03-16T03:04:26.083Z,0.00
2019-03-16T03:05:26.071Z,0.00
2019-03-16T03:06:26.072Z,0.00
2019-03-16T03:07:26.050Z,0.00
2019-03-16T03:08:26.050Z,0.00
2019-03-16T03:09:26.055Z,0.00
2019-03-16T03:10:26.021Z,0.00
2019-03-16T03:11:26.008Z,0.00
2019-03-16T03:12:26.002Z,0.00
2019-03-16T03:13:26.016Z,0.00
2019-03-16T03:14:25.981Z,0.00
2019-03-16T03:15:26.082Z,0.00
2019-03-16T03:16:25.963Z,0.00
2019-03-16T03:17:25.945Z,0.00
2019-03-16T03:18:25.933Z,0.00
2019-03-16T03:19:25.949Z,0.00
2019-03-16T03:20:25.920Z,0.00
2019-03-16T03:21:25.944Z,0.00
2019-03-16T03:22:25.912Z,0.00
2019-03-16T03:23:25.884Z,0.00
2019-03-16T03:24:25.929Z,0.00
2019-03-16T03:25:25.861Z,0.00
2019-03-16T03:26:25.874Z,0.00
2019-03-16T03:27:25.865Z,0.00
2019-03-16T03:28:25.855Z,0.00
2019-03-16T03:29:25.828Z,0.00
2019-03-16T03:30:25.824Z,0.00
2019-03-16T03:31:25.805Z,0.00
2019-03-16T03:32:25.818Z,0.00
2019-03-16T03:33:25.802Z,0.00
2019-03-16T03:34:25.795Z,0.00
2019-03-16T03:35:29.174Z,0.00
2019-03-16T03:36:25.768Z,0.00
2019-03-16T03:37:25.741Z,0.00
2019-03-16T03:38:25.747Z,0.00
2019-03-16T03:39:25.755Z,0.00
2019-03-16T03:40:25.741Z,0.00
2019-03-16T03:41:25.693Z,0.00
2019-03-16T03:42:25.683Z,0.00
2019-03-16T03:43:25.672Z,0.00
2019-03-16T03:44:32.827Z,0.00
2019-03-16T03:45:25.651Z,0.00
2019-03-16T03:46:25.639Z,0.00
2019-03-16T03:47:25.632Z,0.00
2019-03-16T03:48:25.636Z,0.00
2019-03-16T03:49:25.615Z,0.00
2019-03-16T03:50:25.650Z,0.00
2019-03-16T03:51:25.593Z,0.00
2019-03-16T03:52:25.599Z,0.00
2019-03-16T03:53:25.595Z,0.00
2019-03-16T03:54:25.554Z,0.00
2019-03-16T03:55:25.546Z,0.00
2019-03-16T03:56:25.549Z,0.00
2019-03-16T03:57:25.521Z,0.00
2019-03-16T03:58:25.514Z,0.00
2019-03-16T03:59:25.514Z,0.00
2019-03-16T04:00:25.491Z,0.00
2019-03-16T04:01:25.481Z,0.00
2019-03-16T04:02:25.512Z,0.00
2019-03-16T04:03:25.458Z,0.00
2019-03-16T04:04:25.451Z,0.00
2019-03-16T04:05:25.439Z,0.00
2019-03-16T04:06:25.432Z,0.00
2019-03-16T04:07:25.418Z,0.00
2019-03-16T04:08:25.443Z,0.00
2019-03-16T04:09:25.402Z,0.00
2019-03-16T04:10:25.386Z,0.00
2019-03-16T04:11:25.375Z,0.00
2019-03-16T04:12:25.366Z,0.00
2019-03-16T04:13:25.362Z,0.00
2019-03-16T04:14:25.360Z,0.00
2019-03-16T04:15:25.334Z,0.00
2019-03-16T04:16:25.324Z,0.00
2019-03-16T04:17:25.311Z,0.00
2019-03-16T04:18:25.303Z,0.00
2019-03-16T04:19:25.296Z,0.00
2019-03-16T04:20:25.305Z,0.00
2019-03-16T04:21:25.281Z,0.00
2019-03-16T04:22:25.261Z,0.00
2019-03-16T04:23:25.251Z,0.00
2019-03-16T04:24:25.238Z,0.00
2019-03-16T04:25:25.228Z,0.00
2019-03-16T04:26:25.231Z,0.00
2019-03-16T04:27:25.212Z,0.00
2019-03-16T04:28:25.200Z,0.00
2019-03-16T04:29:25.202Z,0.00
2019-03-16T04:30:25.177Z,0.00
2019-03-16T04:31:25.166Z,0.00
2019-03-16T04:32:25.172Z,0.00
2019-03-16T04:33:25.147Z,0.00
2019-03-16T04:34:29.588Z,0.00
2019-03-16T04:35:25.151Z,0.00
2019-03-16T04:36:25.115Z,0.00
2019-03-16T04:37:25.115Z,0.00
2019-03-16T04:38:25.105Z,0.00
2019-03-16T04:39:25.082Z,0.00
2019-03-16T04:40:25.079Z,0.00
2019-03-16T04:41:25.060Z,0.00
2019-03-16T04:42:25.050Z,0.00
2019-03-16T04:43:25.041Z,0.00
2019-03-16T04:44:25.040Z,0.00
2019-03-16T04:45:25.015Z,0.00
2019-03-16T04:46:25.009Z,0.00
2019-03-16T04:47:24.998Z,0.00
2019-03-16T04:48:24.989Z,0.00
2019-03-16T04:49:24.978Z,0.00
2019-03-16T04:50:24.986Z,0.00
2019-03-16T04:51:24.955Z,0.00
2019-03-16T04:52:24.945Z,0.00
2019-03-16T04:53:24.938Z,0.00
2019-03-16T04:54:24.924Z,0.00
2019-03-16T04:55:24.919Z,0.00
2019-03-16T04:56:24.924Z,0.00
2019-03-16T04:57:24.897Z,0.00
2019-03-16T04:58:24.881Z,0.00
2019-03-16T04:59:24.890Z,0.00
2019-03-16T05:00:24.866Z,0.00
2019-03-16T05:01:24.880Z,0.00
2019-03-16T05:02:24.868Z,0.00
2019-03-16T05:03:24.835Z,0.00
2019-03-16T05:04:24.822Z,0.00
2019-03-16T05:05:24.819Z,0.00
2019-03-16T05:06:24.806Z,0.00
2019-03-16T05:07:24.789Z,0.00
2019-03-16T05:08:24.798Z,0.00
2019-03-16T05:09:24.772Z,0.00
2019-03-16T05:10:24.774Z,0.00
2019-03-16T05:11:24.747Z,0.00
2019-03-16T05:12:24.759Z,0.00
2019-03-16T05:13:24.723Z,0.00
2019-03-16T05:14:24.741Z,0.00
2019-03-16T05:15:24.705Z,0.00
2019-03-16T05:16:24.692Z,0.00
2019-03-16T05:17:24.685Z,0.00
2019-03-16T05:18:24.676Z,0.00
2019-03-16T05:19:24.671Z,0.00
2019-03-16T05:20:24.669Z,0.00
2019-03-16T05:21:24.640Z,0.00
2019-03-16T05:22:24.630Z,0.00
2019-03-16T05:23:24.621Z,0.00
2019-03-16T05:24:24.611Z,0.00
2019-03-16T05:25:24.601Z,0.00
2019-03-16T05:26:24.604Z,0.00
2019-03-16T05:27:24.578Z,0.00
2019-03-16T05:28:24.564Z,0.00
2019-03-16T05:29:24.555Z,0.00
2019-03-16T05:30:24.545Z,0.00
2019-03-16T05:31:24.542Z,0.00
2019-03-16T05:32:24.542Z,0.00
2019-03-16T05:33:24.528Z,0.00
2019-03-16T05:34:24.506Z,0.00
2019-03-16T05:35:24.493Z,0.00
2019-03-16T05:36:24.482Z,0.00
2019-03-16T05:37:24.473Z,0.00
2019-03-16T05:38:24.472Z,0.00
2019-03-16T05:39:24.450Z,0.00
2019-03-16T05:40:24.440Z,0.00
2019-03-16T05:41:24.427Z,0.00
2019-03-16T05:42:24.418Z,0.00
2019-03-16T05:43:24.407Z,0.00
2019-03-16T05:44:24.411Z,0.00
2019-03-16T05:45:24.385Z,5.62
2019-03-16T05:46:24.375Z,5.62
2019-03-16T05:47:24.365Z,5.62
2019-03-16T05:48:24.353Z,5.62
2019-03-16T05:49:24.346Z,11.25
2019-03-16T05:50:24.351Z,11.25
2019-03-16T05:51:24.322Z,11.25
2019-03-16T05:52:24.318Z,11.25
2019-03-16T05:53:24.301Z,5.62
2019-03-16T05:54:24.294Z,5.62
2019-03-16T05:55:24.279Z,11.25
2019-03-16T05:56:24.294Z,11.25
2019-03-16T05:57:24.257Z,11.25
2019-03-16T05:58:24.251Z,11.25
2019-03-16T05:59:24.237Z,11.25
2019-03-16T06:00:24.224Z,11.25
2019-03-16T06:01:24.214Z,11.25
2019-03-16T06:02:24.222Z,11.25
2019-03-16T06:03:24.196Z,11.25
2019-03-16T06:04:24.181Z,11.25
2019-03-16T06:05:24.172Z,11.25
2019-03-16T06:06:27.301Z,11.25
2019-03-16T06:07:24.160Z,11.25
2019-03-16T06:08:24.153Z,11.25
2019-03-16T06:09:24.134Z,16.88
2019-03-16T06:10:24.118Z,11.25
2019-03-16T06:11:24.108Z,11.25
2019-03-16T06:12:24.101Z,11.25
2019-03-16T06:13:24.089Z,11.25
2019-03-16T06:14:24.090Z,11.25
2019-03-16T06:15:24.064Z,11.25
2019-03-16T06:16:24.057Z,16.88
2019-03-16T06:17:24.044Z,16.88
2019-03-16T06:18:24.035Z,22.50
2019-03-16T06:19:24.025Z,22.50
2019-03-16T06:20:24.031Z,22.50
2019-03-16T06:21:24.003Z,22.50
2019-03-16T06:22:23.993Z,22.50
2019-03-16T06:23:23.986Z,22.50
2019-03-16T06:24:23.970Z,28.12
2019-03-16T06:25:23.961Z,28.12
2019-03-16T06:26:23.963Z,28.12
2019-03-16T06:27:23.938Z,33.75
2019-03-16T06:28:23.928Z,33.75
2019-03-16T06:29:23.923Z,33.75
2019-03-16T06:30:23.906Z,33.75
2019-03-16T06:31:23.894Z,39.38
2019-03-16T06:32:23.900Z,33.75
2019-03-16T06:33:23.877Z,39.38
2019-03-16T06:34:23.864Z,39.38
2019-03-16T06:35:28.938Z,45.00
2019-03-16T06:36:24.844Z,50.62
2019-03-16T06:37:23.832Z,50.62
2019-03-16T06:38:23.838Z,45.00
2019-03-16T06:39:23.813Z,45.00
2019-03-16T06:40:23.803Z,45.00
2019-03-16T06:41:23.792Z,45.00
2019-03-16T06:42:23.781Z,45.00
2019-03-16T06:43:23.772Z,45.00
2019-03-16T06:44:23.797Z,50.62
2019-03-16T06:45:23.749Z,56.25
2019-03-16T06:46:23.747Z,56.25
2019-03-16T06:47:23.730Z,56.25
2019-03-16T06:48:23.717Z,61.88
2019-03-16T06:49:23.707Z,61.88
2019-03-16T06:50:23.710Z,61.88
2019-03-16T06:51:23.693Z,61.88
2019-03-16T06:52:23.676Z,61.88
2019-03-16T06:53:23.663Z,61.88
2019-03-16T06:54:23.675Z,67.50
2019-03-16T06:55:23.643Z,67.50
2019-03-16T06:56:23.650Z,61.88
2019-03-16T06:57:23.623Z,61.88
2019-03-16T06:58:23.614Z,56.25
2019-03-16T06:59:23.605Z,61.88
2019-03-16T07:00:23.594Z,67.50
2019-03-16T07:01:23.581Z,73.12
2019-03-16T07:02:23.589Z,84.38
2019-03-16T07:03:23.563Z,90.00
2019-03-16T07:04:23.549Z,90.00
2019-03-16T07:05:33.237Z,84.38
2019-03-16T07:06:24.528Z,84.38
2019-03-16T07:07:23.533Z,95.62
2019-03-16T07:08:23.525Z,101.25
2019-03-16T07:09:23.497Z,101.25
2019-03-16T07:10:23.488Z,106.88
2019-03-16T07:11:23.475Z,112.50
2019-03-16T07:12:23.466Z,123.75
2019-03-16T07:13:23.456Z,135.00
2019-03-16T07:14:23.462Z,151.88
2019-03-16T07:15:23.433Z,163.12
2019-03-16T07:16:23.427Z,174.38
2019-03-16T07:17:23.411Z,196.88
2019-03-16T07:18:23.402Z,213.75
2019-03-16T07:19:23.392Z,230.62
2019-03-16T07:20:23.393Z,247.50
2019-03-16T07:21:23.375Z,241.88
2019-03-16T07:22:23.357Z,253.12
2019-03-16T07:23:23.473Z,286.88
2019-03-16T07:24:23.337Z,315.00
2019-03-16T07:25:23.370Z,348.75
2019-03-16T07:26:23.328Z,388.12
2019-03-16T07:27:26.320Z,421.88
2019-03-16T07:28:23.294Z,444.38
2019-03-16T07:29:23.286Z,427.50
2019-03-16T07:30:23.328Z,382.50
2019-03-16T07:31:23.259Z,360.00
2019-03-16T07:32:23.280Z,343.12
2019-03-16T07:33:23.235Z,343.12
2019-03-16T07:34:23.226Z,376.88
2019-03-16T07:35:23.216Z,376.88
2019-03-16T07:36:23.203Z,376.88
2019-03-16T07:37:23.194Z,371.25
2019-03-16T07:38:23.218Z,388.12
2019-03-16T07:39:23.172Z,376.88
2019-03-16T07:40:23.213Z,365.62
2019-03-16T07:41:23.152Z,354.38
2019-03-16T07:42:23.140Z,337.50
2019-03-16T07:43:23.131Z,326.25
2019-03-16T07:44:23.138Z,320.62
2019-03-16T07:45:23.108Z,315.00
2019-03-16T07:46:23.112Z,320.62
2019-03-16T07:47:23.093Z,331.88
2019-03-16T07:48:23.079Z,348.75
2019-03-16T07:49:23.067Z,365.62
2019-03-16T07:50:23.074Z,376.88
2019-03-16T07:51:23.046Z,388.12
2019-03-16T07:52:23.117Z,388.12
2019-03-16T07:53:23.027Z,410.62
2019-03-16T07:54:23.012Z,433.12
2019-03-16T07:55:23.005Z,483.75
2019-03-16T07:56:23.005Z,450.00
2019-03-16T07:57:22.983Z,438.75
2019-03-16T07:58:22.967Z,433.12
2019-03-16T07:59:22.957Z,365.62
2019-03-16T08:00:22.948Z,343.12
2019-03-16T08:01:22.938Z,360.00
2019-03-16T08:02:23.034Z,416.25
2019-03-16T08:03:22.921Z,444.38
2019-03-16T08:04:22.910Z,421.88
2019-03-16T08:05:22.893Z,399.38
2019-03-16T08:06:22.887Z,438.75
2019-03-16T08:07:22.871Z,450.00
2019-03-16T08:08:22.876Z,421.88
2019-03-16T08:09:22.879Z,399.38
2019-03-16T08:10:22.839Z,354.38
2019-03-16T08:11:22.829Z,348.75
2019-03-16T08:12:22.820Z,365.62
2019-03-16T08:13:22.810Z,371.25
2019-03-16T08:14:22.856Z,343.12
2019-03-16T08:15:22.786Z,326.25
2019-03-16T08:16:22.779Z,326.25
2019-03-16T08:17:22.773Z,331.88
2019-03-16T08:18:22.754Z,315.00
2019-03-16T08:19:22.744Z,286.88
2019-03-16T08:20:22.744Z,275.62
2019-03-16T08:21:22.722Z,286.88
2019-03-16T08:22:22.712Z,286.88
2019-03-16T08:23:22.699Z,286.88
2019-03-16T08:24:22.690Z,286.88
2019-03-16T08:25:22.674Z,286.88
2019-03-16T08:26:22.683Z,281.25
2019-03-16T08:27:22.657Z,258.75
2019-03-16T08:28:22.645Z,247.50
2019-03-16T08:29:22.637Z,253.12
2019-03-16T08:30:23.873Z,264.38
2019-03-16T08:31:22.610Z,292.50
2019-03-16T08:32:25.324Z,365.62
2019-03-16T08:33:22.591Z,427.50
2019-03-16T08:34:22.581Z,433.12
2019-03-16T08:35:22.569Z,399.38
2019-03-16T08:36:22.559Z,388.12
2019-03-16T08:37:22.549Z,376.88
2019-03-16T08:38:22.562Z,399.38
2019-03-16T08:39:22.528Z,421.88
2019-03-16T08:40:22.517Z,450.00
2019-03-16T08:41:22.559Z,466.88
2019-03-16T08:42:22.496Z,483.75
2019-03-16T08:43:22.483Z,511.88
2019-03-16T08:44:22.485Z,534.38
2019-03-16T08:45:22.463Z,466.88
2019-03-16T08:46:22.450Z,438.75
2019-03-16T08:47:22.442Z,556.88
2019-03-16T08:48:23.434Z,669.38
2019-03-16T08:49:22.418Z,714.38
2019-03-16T08:50:22.425Z,658.12
2019-03-16T08:51:22.399Z,652.50
2019-03-16T08:52:22.386Z,663.75
2019-03-16T08:53:23.082Z,658.12
2019-03-16T08:54:22.364Z,697.50
2019-03-16T08:55:22.353Z,753.75
2019-03-16T08:56:22.360Z,781.88
2019-03-16T08:57:22.334Z,691.88
2019-03-16T08:58:22.341Z,697.50
2019-03-16T08:59:24.492Z,810.00
2019-03-16T09:00:22.300Z,945.00
2019-03-16T09:01:22.290Z,905.62
2019-03-16T09:02:22.293Z,860.62
2019-03-16T09:03:22.278Z,883.12
2019-03-16T09:04:22.258Z,753.75
2019-03-16T09:05:22.247Z,630.00
2019-03-16T09:06:22.238Z,663.75
2019-03-16T09:07:22.232Z,680.62
2019-03-16T09:08:22.225Z,708.75
2019-03-16T09:09:22.206Z,776.25
2019-03-16T09:10:22.190Z,787.50
2019-03-16T09:11:22.180Z,787.50
2019-03-16T09:12:22.206Z,815.62
2019-03-16T09:13:22.156Z,838.12
2019-03-16T09:14:22.166Z,838.12
2019-03-16T09:15:22.140Z,787.50
2019-03-16T09:16:22.131Z,765.00
2019-03-16T09:17:22.128Z,669.38
2019-03-16T09:18:22.172Z,652.50
2019-03-16T09:19:22.095Z,714.38
2019-03-16T09:20:22.194Z,765.00
2019-03-16T09:21:22.073Z,855.00
2019-03-16T09:22:22.117Z,1029.38
2019-03-16T09:23:22.053Z,776.25
2019-03-16T09:24:22.041Z,804.38
2019-03-16T09:25:22.031Z,950.62
2019-03-16T09:26:22.034Z,3048.75
2019-03-16T09:27:31.067Z,1535.62
2019-03-16T09:28:22.994Z,1288.12
2019-03-16T09:29:21.990Z,1434.38
2019-03-16T09:30:21.976Z,3763.12
2019-03-16T09:31:22.011Z,3391.88
2019-03-16T09:32:21.973Z,2446.88
2019-03-16T09:33:22.069Z,3465.00
2019-03-16T09:34:21.935Z,3465.00
2019-03-16T09:35:21.921Z,877.50
2019-03-16T09:36:21.954Z,916.88
2019-03-16T09:37:21.909Z,2947.50
2019-03-16T09:38:21.913Z,950.62
2019-03-16T09:39:21.880Z,939.38
2019-03-16T09:40:21.872Z,905.62
2019-03-16T09:41:21.858Z,1305.00
2019-03-16T09:42:21.848Z,1181.25
2019-03-16T09:43:21.848Z,1890.00
2019-03-16T09:44:21.841Z,1029.38
2019-03-16T09:45:21.817Z,1018.12
2019-03-16T09:46:21.807Z,3656.25
2019-03-16T09:47:21.794Z,3571.88
2019-03-16T09:48:21.784Z,2070.00
2019-03-16T09:49:21.781Z,2261.25
2019-03-16T09:50:21.780Z,3583.12
2019-03-16T09:51:21.755Z,3678.75
2019-03-16T09:52:21.738Z,2418.75
2019-03-16T09:53:21.728Z,3729.38
2019-03-16T09:54:21.719Z,3088.12
2019-03-16T09:55:21.712Z,3864.38
2019-03-16T09:56:21.709Z,3875.62
2019-03-16T09:57:21.687Z,3875.62
2019-03-16T09:58:30.648Z,1203.75
2019-03-16T09:59:22.663Z,3825.00
2019-03-16T10:00:21.655Z,2570.62
2019-03-16T10:01:21.642Z,3915.00
2019-03-16T10:02:21.648Z,3757.50
2019-03-16T10:03:21.626Z,3926.25
2019-03-16T10:04:21.611Z,4156.88
2019-03-16T10:05:21.602Z,4190.62
2019-03-16T10:06:21.594Z,4033.12
2019-03-16T10:07:21.577Z,3965.62
2019-03-16T10:08:21.585Z,3740.62
2019-03-16T10:09:21.561Z,3841.88
2019-03-16T10:10:21.546Z,3746.25
2019-03-16T10:11:21.536Z,3628.12
2019-03-16T10:12:28.572Z,3735.00
2019-03-16T10:13:21.526Z,3751.88
2019-03-16T10:14:21.526Z,3690.00
2019-03-16T10:15:21.541Z,3870.00
2019-03-16T10:16:21.581Z,3706.88
2019-03-16T10:17:21.510Z,3735.00
2019-03-16T10:18:21.471Z,3774.38
2019-03-16T10:19:21.497Z,3746.25
2019-03-16T10:20:21.459Z,3611.25
2019-03-16T10:21:21.433Z,3358.12
2019-03-16T10:22:21.423Z,3476.25
2019-03-16T10:23:21.415Z,860.62
2019-03-16T10:24:21.449Z,1136.25
2019-03-16T10:25:21.388Z,1265.62
2019-03-16T10:26:21.453Z,3448.12
2019-03-16T10:27:21.372Z,3110.62
2019-03-16T10:28:21.353Z,3217.50
2019-03-16T10:29:21.347Z,3223.12
2019-03-16T10:30:21.381Z,3166.88
2019-03-16T10:31:21.340Z,2880.00
2019-03-16T10:32:21.331Z,1957.50
2019-03-16T10:33:21.318Z,1091.25
2019-03-16T10:34:21.290Z,2857.50
2019-03-16T10:35:21.286Z,1417.50
2019-03-16T10:36:21.330Z,635.62
2019-03-16T10:37:21.294Z,641.25
2019-03-16T10:38:21.279Z,1614.38
2019-03-16T10:39:21.242Z,2773.12
2019-03-16T10:40:21.249Z,1001.25
2019-03-16T10:41:21.218Z,2981.25
2019-03-16T10:42:21.210Z,2863.12
2019-03-16T10:43:21.237Z,2469.38
2019-03-16T10:44:21.285Z,3127.50
2019-03-16T10:45:21.172Z,3324.38
2019-03-16T10:46:21.163Z,1957.50
2019-03-16T10:47:21.158Z,2148.75
2019-03-16T10:48:21.146Z,2908.12
2019-03-16T10:49:21.149Z,3571.88
2019-03-16T10:50:21.243Z,3099.38
2019-03-16T10:51:21.110Z,2874.38
2019-03-16T10:52:21.105Z,2823.75
2019-03-16T10:53:21.089Z,2514.38
2019-03-16T10:54:21.089Z,2345.62
2019-03-16T10:55:21.091Z,1811.25
2019-03-16T10:56:21.120Z,2801.25
2019-03-16T10:57:21.051Z,2790.00
2019-03-16T10:58:21.041Z,2908.12
2019-03-16T10:59:21.034Z,2486.25
2019-03-16T11:00:21.019Z,2525.62
2019-03-16T11:01:21.005Z,2469.38
2019-03-16T11:02:21.053Z,2520.00
2019-03-16T11:03:21.066Z,3082.50
2019-03-16T11:04:20.975Z,2868.75
2019-03-16T11:05:20.962Z,2936.25
2019-03-16T11:06:20.958Z,3138.75
2019-03-16T11:07:20.939Z,3453.75
2019-03-16T11:08:20.956Z,3515.62
2019-03-16T11:09:20.947Z,3420.00
2019-03-16T11:10:20.907Z,3425.62
2019-03-16T11:11:20.895Z,3296.25
2019-03-16T11:12:20.888Z,2694.38
2019-03-16T11:13:20.878Z,3571.88
2019-03-16T11:14:20.885Z,3223.12
2019-03-16T11:15:20.862Z,3279.38
2019-03-16T11:16:20.846Z,2925.00
2019-03-16T11:17:20.837Z,1445.62
2019-03-16T11:18:20.824Z,3043.12
2019-03-16T11:19:20.818Z,3003.75
2019-03-16T11:20:20.820Z,2722.50
2019-03-16T11:21:20.811Z,3048.75
2019-03-16T11:22:20.782Z,3279.38
2019-03-16T11:23:20.770Z,3431.25
2019-03-16T11:24:20.777Z,3318.75
2019-03-16T11:25:20.765Z,3577.50
2019-03-16T11:26:20.768Z,3121.88
2019-03-16T11:27:20.766Z,3324.38
2019-03-16T11:28:20.731Z,3555.00
2019-03-16T11:29:20.709Z,3555.00
2019-03-16T11:30:20.693Z,3796.88
2019-03-16T11:31:20.683Z,3931.88
2019-03-16T11:32:20.695Z,3808.12
2019-03-16T11:33:20.668Z,3706.88
2019-03-16T11:34:20.677Z,3071.25
2019-03-16T11:35:20.653Z,2368.12
2019-03-16T11:36:20.635Z,3211.88
2019-03-16T11:37:20.622Z,4241.25
2019-03-16T11:38:20.632Z,3909.38
2019-03-16T11:39:20.600Z,3976.88
2019-03-16T11:40:20.631Z,3093.75
2019-03-16T11:41:20.599Z,2480.62
2019-03-16T11:42:20.568Z,3600.00
2019-03-16T11:43:20.559Z,3909.38
2019-03-16T11:44:20.565Z,3898.12
2019-03-16T11:45:20.542Z,3729.38
2019-03-16T11:46:20.539Z,3583.12
2019-03-16T11:47:20.555Z,3335.62
2019-03-16T11:48:20.508Z,3200.62
2019-03-16T11:49:20.497Z,3459.38
2019-03-16T11:50:20.510Z,3886.88
2019-03-16T11:51:20.478Z,3656.25
2019-03-16T11:52:20.479Z,2733.75
2019-03-16T11:53:20.492Z,3172.50
2019-03-16T11:54:20.454Z,3661.88
2019-03-16T11:55:20.447Z,3813.75
2019-03-16T11:56:20.443Z,3695.62
2019-03-16T11:57:20.424Z,3470.62
2019-03-16T11:58:20.433Z,3487.50
2019-03-16T11:59:21.793Z,3436.88
2019-03-16T12:00:20.406Z,3504.38
2019-03-16T12:01:20.371Z,3628.12
2019-03-16T12:02:20.377Z,3802.50
2019-03-16T12:03:20.345Z,3391.88
2019-03-16T12:04:20.335Z,2300.62
2019-03-16T12:05:20.319Z,2778.75
2019-03-16T12:06:20.325Z,3493.12
2019-03-16T12:07:20.303Z,3442.50
2019-03-16T12:08:20.335Z,3600.00
2019-03-16T12:09:20.281Z,3690.00
2019-03-16T12:10:20.272Z,3543.75
2019-03-16T12:11:20.283Z,3543.75
2019-03-16T12:12:20.252Z,3420.00
2019-03-16T12:13:20.336Z,3363.75
2019-03-16T12:14:20.251Z,3577.50
2019-03-16T12:15:20.220Z,3594.38
2019-03-16T12:16:20.224Z,3487.50
2019-03-16T12:17:20.195Z,3487.50
2019-03-16T12:18:20.189Z,3335.62
2019-03-16T12:19:20.185Z,3279.38
2019-03-16T12:20:20.281Z,3420.00
2019-03-16T12:21:20.173Z,3481.88
2019-03-16T12:22:20.151Z,3116.25
2019-03-16T12:23:20.144Z,2981.25
2019-03-16T12:24:20.128Z,2913.75
2019-03-16T12:25:20.118Z,3178.12
2019-03-16T12:26:20.379Z,3071.25
2019-03-16T12:27:20.099Z,2806.88
2019-03-16T12:28:20.084Z,3121.88
2019-03-16T12:29:20.073Z,3256.88
2019-03-16T12:30:20.058Z,3060.00
2019-03-16T12:31:20.055Z,3054.38
2019-03-16T12:32:20.077Z,3206.25
2019-03-16T12:33:20.035Z,3161.25
2019-03-16T12:34:20.019Z,3065.62
2019-03-16T12:35:20.029Z,3127.50
2019-03-16T12:36:19.994Z,3240.00
2019-03-16T12:37:20.029Z,3099.38
2019-03-16T12:38:20.105Z,3223.12
2019-03-16T12:39:19.977Z,3183.75
2019-03-16T12:40:19.988Z,3031.88
2019-03-16T12:41:19.951Z,2863.12
2019-03-16T12:42:19.933Z,2761.88
2019-03-16T12:43:20.064Z,2750.62
2019-03-16T12:44:19.932Z,2728.12
2019-03-16T12:45:20.857Z,2750.62
2019-03-16T12:46:19.904Z,2413.12